createdAt,value
2018-03-21T00:00:15.289Z,0
2018-03-21T00:01:15.192Z,0
2018-03-21T00:02:15.252Z,0
2018-03-21T00:03:15.275Z,0
2018-03-21T00:04:15.187Z,0
2018-03-21T00:05:15.299Z,0
2018-03-21T00:06:15.291Z,0
2018-03-21T00:07:15.310Z,0
2018-03-21T00:08:15.193Z,0
2018-03-21T00:09:15.247Z,0
2018-03-21T00:10:15.260Z,0
2018-03-21T00:11:15.302Z,0
2018-03-21T00:12:15.187Z,0
2018-03-21T00:13:15.279Z,0
2018-03-21T00:14:15.309Z,0
2018-03-21T00:15:15.196Z,0
2018-03-21T00:16:15.249Z,0
2018-03-21T00:17:15.257Z,0
2018-03-21T00:18:15.315Z,0
2018-03-21T00:19:15.219Z,0
2018-03-21T00:20:15.274Z,0
2018-03-21T00:21:15.234Z,0
2018-03-21T00:22:15.304Z,0
2018-03-21T00:23:15.217Z,0
2018-03-21T00:24:15.224Z,0
2018-03-21T00:25:15.320Z,0
2018-03-21T00:26:15.226Z,0
2018-03-21T00:27:15.267Z,0
2018-03-21T00:28:15.227Z,0
2018-03-21T00:29:15.223Z,0
2018-03-21T00:30:15.231Z,0
2018-03-21T00:31:15.223Z,0
2018-03-21T00:32:15.312Z,0
2018-03-21T00:33:15.318Z,0
2018-03-21T00:34:15.231Z,0
2018-03-21T00:35:15.292Z,0
2018-03-21T00:36:15.289Z,0
2018-03-21T00:37:15.309Z,0
2018-03-21T00:38:15.237Z,0
2018-03-21T00:39:15.206Z,0
2018-03-21T00:40:15.237Z,0
2018-03-21T00:41:15.319Z,0
2018-03-21T00:42:15.322Z,0
2018-03-21T00:43:15.237Z,0
2018-03-21T00:44:15.272Z,0
2018-03-21T00:45:15.243Z,0
2018-03-21T00:46:15.278Z,0
2018-03-21T00:47:15.214Z,0
2018-03-21T00:48:15.326Z,0
2018-03-21T00:49:15.322Z,0
2018-03-21T00:50:15.322Z,0
2018-03-21T00:51:15.332Z,0
2018-03-21T00:52:15.213Z,0
2018-03-21T00:53:15.250Z,0
2018-03-21T00:54:15.279Z,0
2018-03-21T00:55:15.337Z,0
2018-03-21T00:56:15.244Z,0
2018-03-21T00:57:15.282Z,0
2018-03-21T00:58:15.314Z,0
2018-03-21T00:59:15.287Z,0
2018-03-21T01:00:15.247Z,0
2018-03-21T01:01:15.224Z,0
2018-03-21T01:02:15.218Z,0
2018-03-21T01:03:15.349Z,0
2018-03-21T01:04:15.291Z,0
2018-03-21T01:05:15.327Z,0
2018-03-21T01:06:15.250Z,0
2018-03-21T01:07:15.222Z,0
2018-03-21T01:08:15.284Z,0
2018-03-21T01:09:15.227Z,0
2018-03-21T01:10:15.224Z,0
2018-03-21T01:11:15.229Z,0
2018-03-21T01:12:15.220Z,0
2018-03-21T01:13:15.221Z,0
2018-03-21T01:14:15.250Z,0
2018-03-21T01:15:15.288Z,0
2018-03-21T01:16:15.232Z,0
2018-03-21T01:17:15.317Z,0
2018-03-21T01:18:15.257Z,0
2018-03-21T01:19:15.228Z,0
2018-03-21T01:20:15.261Z,0
2018-03-21T01:21:15.431Z,0
2018-03-21T01:22:15.229Z,0
2018-03-21T01:23:15.352Z,0
2018-03-21T01:24:15.256Z,0
2018-03-21T01:25:15.346Z,0
2018-03-21T01:26:15.235Z,0
2018-03-21T01:27:15.258Z,0
2018-03-21T01:28:15.262Z,0
2018-03-21T01:29:15.263Z,0
2018-03-21T01:30:15.298Z,0
2018-03-21T01:31:15.305Z,0
2018-03-21T01:32:15.308Z,0
2018-03-21T01:33:15.326Z,0
2018-03-21T01:34:15.306Z,0
2018-03-21T01:35:15.276Z,0
2018-03-21T01:36:15.266Z,0
2018-03-21T01:37:15.297Z,0
2018-03-21T01:38:15.309Z,0
2018-03-21T01:39:15.349Z,0
2018-03-21T01:40:15.305Z,0
2018-03-21T01:41:15.355Z,0
2018-03-21T01:42:15.353Z,0
2018-03-21T01:43:15.308Z,0
2018-03-21T01:44:15.245Z,0
2018-03-21T01:45:15.246Z,0
2018-03-21T01:46:15.277Z,0
2018-03-21T01:47:15.272Z,0
2018-03-21T01:48:15.252Z,0
2018-03-21T01:49:15.376Z,0
2018-03-21T01:50:15.356Z,0
2018-03-21T01:51:15.272Z,0
2018-03-21T01:52:15.274Z,0
2018-03-21T01:53:15.288Z,0
2018-03-21T01:54:15.369Z,0
2018-03-21T01:55:15.363Z,0
2018-03-21T01:56:15.315Z,0
2018-03-21T01:57:15.256Z,0
2018-03-21T01:58:15.277Z,0
2018-03-21T01:59:15.326Z,0
2018-03-21T02:00:15.363Z,0
2018-03-21T02:01:15.365Z,0
2018-03-21T02:02:15.297Z,0
2018-03-21T02:03:15.256Z,0
2018-03-21T02:04:15.316Z,0
2018-03-21T02:05:15.283Z,0
2018-03-21T02:06:15.263Z,0
2018-03-21T02:07:15.286Z,0
2018-03-21T02:08:15.264Z,0
2018-03-21T02:09:15.376Z,0
2018-03-21T02:10:15.285Z,0
2018-03-21T02:11:15.265Z,0
2018-03-21T02:12:15.335Z,0
2018-03-21T02:13:15.265Z,0
2018-03-21T02:14:15.266Z,0
2018-03-21T02:15:15.263Z,0
2018-03-21T02:16:15.383Z,0
2018-03-21T02:17:15.371Z,0
2018-03-21T02:18:15.298Z,0
2018-03-21T02:19:15.372Z,0
2018-03-21T02:20:15.335Z,0
2018-03-21T02:21:15.303Z,0
2018-03-21T02:22:15.264Z,0
2018-03-21T02:23:15.382Z,0
2018-03-21T02:24:15.298Z,0
2018-03-21T02:25:15.338Z,0
2018-03-21T02:26:15.385Z,0
2018-03-21T02:27:15.387Z,0
2018-03-21T02:28:15.298Z,0
2018-03-21T02:29:15.383Z,0
2018-03-21T02:30:15.343Z,0
2018-03-21T02:31:15.330Z,0
2018-03-21T02:32:15.392Z,0
2018-03-21T02:33:15.395Z,0
2018-03-21T02:34:15.336Z,0
2018-03-21T02:35:15.405Z,0
2018-03-21T02:36:15.369Z,0
2018-03-21T02:37:15.307Z,0
2018-03-21T02:38:15.341Z,0
2018-03-21T02:39:15.395Z,0
2018-03-21T02:40:15.283Z,0
2018-03-21T02:41:15.388Z,0
2018-03-21T02:42:15.307Z,0
2018-03-21T02:43:15.319Z,0
2018-03-21T02:44:15.309Z,0
2018-03-21T02:45:15.371Z,0
2018-03-21T02:46:15.399Z,0
2018-03-21T02:47:15.358Z,0
2018-03-21T02:48:15.311Z,0
2018-03-21T02:49:15.408Z,0
2018-03-21T02:50:15.318Z,0
2018-03-21T02:51:15.298Z,0
2018-03-21T02:52:15.317Z,0
2018-03-21T02:53:15.351Z,0
2018-03-21T02:54:15.371Z,0
2018-03-21T02:55:15.320Z,0
2018-03-21T02:56:15.318Z,0
2018-03-21T02:57:15.287Z,0
2018-03-21T02:58:15.354Z,0
2018-03-21T02:59:15.296Z,0
2018-03-21T03:00:15.327Z,0
2018-03-21T03:01:15.357Z,0
2018-03-21T03:02:15.314Z,0
2018-03-21T03:03:15.400Z,0
2018-03-21T03:04:15.315Z,0
2018-03-21T03:05:15.406Z,0
2018-03-21T03:06:15.399Z,0
2018-03-21T03:07:15.384Z,0
2018-03-21T03:08:15.400Z,0
2018-03-21T03:09:15.410Z,0
2018-03-21T03:10:15.324Z,0
2018-03-21T03:11:15.403Z,0
2018-03-21T03:12:15.332Z,0
2018-03-21T03:13:15.414Z,0
2018-03-21T03:14:15.419Z,0
2018-03-21T03:15:15.293Z,0
2018-03-21T03:16:15.424Z,0
2018-03-21T03:17:15.363Z,0
2018-03-21T03:18:15.372Z,0
2018-03-21T03:19:15.299Z,0
2018-03-21T03:20:15.394Z,0
2018-03-21T03:21:15.306Z,0
2018-03-21T03:22:15.328Z,0
2018-03-21T03:23:15.390Z,0
2018-03-21T03:24:15.306Z,0
2018-03-21T03:25:15.336Z,0
2018-03-21T03:26:15.310Z,0
2018-03-21T03:27:15.374Z,0
2018-03-21T03:28:15.426Z,0
2018-03-21T03:29:15.428Z,0
2018-03-21T03:30:15.377Z,0
2018-03-21T03:31:15.372Z,0
2018-03-21T03:32:15.338Z,0
2018-03-21T03:33:15.440Z,0
2018-03-21T03:34:15.303Z,0
2018-03-21T03:35:15.342Z,0
2018-03-21T03:36:15.398Z,0
2018-03-21T03:37:15.374Z,0
2018-03-21T03:38:15.429Z,0
2018-03-21T03:39:15.340Z,0
2018-03-21T03:40:15.344Z,0
2018-03-21T03:41:15.339Z,0
2018-03-21T03:42:15.385Z,0
2018-03-21T03:43:15.427Z,0
2018-03-21T03:44:15.408Z,0
2018-03-21T03:45:15.386Z,0
2018-03-21T03:46:15.405Z,0
2018-03-21T03:47:15.437Z,0
2018-03-21T03:48:15.388Z,0
2018-03-21T03:49:15.446Z,0
2018-03-21T03:50:15.381Z,0
2018-03-21T03:51:15.391Z,0
2018-03-21T03:52:15.349Z,0
2018-03-21T03:53:15.329Z,0
2018-03-21T03:54:15.317Z,0
2018-03-21T03:55:15.446Z,0
2018-03-21T03:56:15.448Z,0
2018-03-21T03:57:15.439Z,0
2018-03-21T03:58:15.383Z,0
2018-03-21T03:59:15.398Z,0
2018-03-21T04:00:15.332Z,0
2018-03-21T04:01:15.415Z,0
2018-03-21T04:02:15.386Z,0
2018-03-21T04:03:15.363Z,0
2018-03-21T04:04:15.360Z,0
2018-03-21T04:05:15.412Z,0
2018-03-21T04:06:15.449Z,0
2018-03-21T04:07:15.360Z,0
2018-03-21T04:08:15.361Z,0
2018-03-21T04:09:15.445Z,0
2018-03-21T04:10:15.328Z,0
2018-03-21T04:11:15.443Z,0
2018-03-21T04:12:15.400Z,0
2018-03-21T04:13:15.383Z,0
2018-03-21T04:14:15.445Z,0
2018-03-21T04:15:15.441Z,0
2018-03-21T04:16:15.373Z,0
2018-03-21T04:17:15.427Z,0
2018-03-21T04:18:15.457Z,0
2018-03-21T04:19:15.361Z,0
2018-03-21T04:20:15.376Z,0
2018-03-21T04:21:15.445Z,0
2018-03-21T04:22:15.377Z,0
2018-03-21T04:23:15.456Z,0
2018-03-21T04:24:15.339Z,0
2018-03-21T04:25:15.411Z,0
2018-03-21T04:26:15.345Z,0
2018-03-21T04:27:15.402Z,0
2018-03-21T04:28:15.345Z,0
2018-03-21T04:29:15.468Z,0
2018-03-21T04:30:15.382Z,0
2018-03-21T04:31:15.412Z,0
2018-03-21T04:32:15.490Z,0
2018-03-21T04:33:15.437Z,0
2018-03-21T04:34:15.384Z,0
2018-03-21T04:35:15.458Z,0
2018-03-21T04:36:15.352Z,0
2018-03-21T04:37:15.375Z,0
2018-03-21T04:38:15.347Z,0
2018-03-21T04:39:15.356Z,0
2018-03-21T04:40:15.422Z,0
2018-03-21T04:41:15.422Z,0
2018-03-21T04:42:15.352Z,0
2018-03-21T04:43:15.421Z,0
2018-03-21T04:44:15.461Z,0
2018-03-21T04:45:15.471Z,0
2018-03-21T04:46:15.350Z,0
2018-03-21T04:47:15.381Z,0
2018-03-21T04:48:15.382Z,0
2018-03-21T04:49:15.473Z,0
2018-03-21T04:50:15.479Z,0
2018-03-21T04:51:15.524Z,0
2018-03-21T04:52:15.387Z,0
2018-03-21T04:53:15.421Z,0
2018-03-21T04:54:15.472Z,0
2018-03-21T04:55:15.420Z,0
2018-03-21T04:56:15.383Z,0
2018-03-21T04:57:15.477Z,0
2018-03-21T04:58:15.483Z,0
2018-03-21T04:59:15.397Z,0
2018-03-21T05:00:15.427Z,0
2018-03-21T05:01:15.427Z,0
2018-03-21T05:02:15.475Z,0
2018-03-21T05:03:15.425Z,0
2018-03-21T05:04:15.367Z,0
2018-03-21T05:05:15.365Z,0
2018-03-21T05:06:15.394Z,0
2018-03-21T05:07:15.480Z,0
2018-03-21T05:08:15.489Z,0
2018-03-21T05:09:15.394Z,5
2018-03-21T05:10:15.436Z,5
2018-03-21T05:11:15.437Z,5
2018-03-21T05:12:15.482Z,5
2018-03-21T05:13:15.476Z,5
2018-03-21T05:14:15.481Z,11
2018-03-21T05:15:15.393Z,11
2018-03-21T05:16:15.399Z,11
2018-03-21T05:17:15.494Z,11
2018-03-21T05:18:15.489Z,16
2018-03-21T05:19:15.480Z,16
2018-03-21T05:20:15.490Z,22
2018-03-21T05:21:15.495Z,22
2018-03-21T05:22:15.402Z,22
2018-03-21T05:23:15.380Z,28
2018-03-21T05:24:15.467Z,28
2018-03-21T05:25:15.467Z,33
2018-03-21T05:26:15.493Z,39
2018-03-21T05:27:15.407Z,39
2018-03-21T05:28:15.417Z,45
2018-03-21T05:29:15.409Z,45
2018-03-21T05:30:15.502Z,50
2018-03-21T05:31:15.469Z,50
2018-03-21T05:32:15.488Z,56
2018-03-21T05:33:15.417Z,61
2018-03-21T05:34:15.500Z,67
2018-03-21T05:35:15.489Z,67
2018-03-21T05:36:15.387Z,73
2018-03-21T05:37:15.497Z,78
2018-03-21T05:38:15.480Z,78
2018-03-21T05:39:15.496Z,84
2018-03-21T05:40:15.491Z,90
2018-03-21T05:41:15.393Z,95
2018-03-21T05:42:15.469Z,101
2018-03-21T05:43:15.470Z,106
2018-03-21T05:44:15.500Z,112
2018-03-21T05:45:15.388Z,118
2018-03-21T05:46:15.451Z,123
2018-03-21T05:47:15.413Z,123
2018-03-21T05:48:15.481Z,129
2018-03-21T05:49:15.412Z,135
2018-03-21T05:50:15.503Z,140
2018-03-21T05:51:15.426Z,146
2018-03-21T05:52:15.414Z,151
2018-03-21T05:53:15.462Z,157
2018-03-21T05:54:15.502Z,163
2018-03-21T05:55:15.517Z,163
2018-03-21T05:56:15.387Z,168
2018-03-21T05:57:15.501Z,174
2018-03-21T05:58:15.392Z,208
2018-03-21T05:59:15.464Z,275
2018-03-21T06:00:15.420Z,253
2018-03-21T06:01:15.459Z,196
2018-03-21T06:02:15.421Z,202
2018-03-21T06:03:15.457Z,247
2018-03-21T06:04:15.547Z,213
2018-03-21T06:05:15.465Z,213
2018-03-21T06:06:15.512Z,213
2018-03-21T06:07:15.491Z,219
2018-03-21T06:08:15.520Z,219
2018-03-21T06:09:15.466Z,225
2018-03-21T06:10:15.452Z,230
2018-03-21T06:11:15.464Z,230
2018-03-21T06:12:15.466Z,236
2018-03-21T06:13:15.488Z,241
2018-03-21T06:14:15.400Z,241
2018-03-21T06:15:15.499Z,247
2018-03-21T06:16:15.411Z,253
2018-03-21T06:17:15.499Z,253
2018-03-21T06:18:15.517Z,258
2018-03-21T06:19:15.533Z,264
2018-03-21T06:20:15.432Z,270
2018-03-21T06:21:15.440Z,281
2018-03-21T06:22:15.412Z,286
2018-03-21T06:23:15.464Z,292
2018-03-21T06:24:15.552Z,298
2018-03-21T06:25:15.481Z,309
2018-03-21T06:26:15.435Z,315
2018-03-21T06:27:15.419Z,320
2018-03-21T06:28:15.410Z,331
2018-03-21T06:29:15.405Z,331
2018-03-21T06:30:15.412Z,331
2018-03-21T06:31:15.474Z,337
2018-03-21T06:32:15.529Z,343
2018-03-21T06:33:15.529Z,348
2018-03-21T06:34:15.415Z,360
2018-03-21T06:35:15.482Z,421
2018-03-21T06:36:15.419Z,444
2018-03-21T06:37:15.415Z,489
2018-03-21T06:38:15.456Z,585
2018-03-21T06:39:15.513Z,534
2018-03-21T06:40:15.412Z,500
2018-03-21T06:41:15.479Z,461
2018-03-21T06:42:15.452Z,410
2018-03-21T06:43:15.443Z,393
2018-03-21T06:44:15.539Z,393
2018-03-21T06:45:15.427Z,399
2018-03-21T06:46:15.425Z,405
2018-03-21T06:47:15.462Z,410
2018-03-21T06:48:15.481Z,410
2018-03-21T06:49:15.516Z,410
2018-03-21T06:50:15.544Z,416
2018-03-21T06:51:15.483Z,416
2018-03-21T06:52:15.453Z,421
2018-03-21T06:53:15.489Z,427
2018-03-21T06:54:15.539Z,433
2018-03-21T06:55:15.452Z,433
2018-03-21T06:56:15.540Z,450
2018-03-21T06:57:15.432Z,450
2018-03-21T06:58:15.538Z,444
2018-03-21T06:59:15.429Z,466
2018-03-21T07:00:15.462Z,466
2018-03-21T07:01:15.456Z,478
2018-03-21T07:02:15.425Z,506
2018-03-21T07:03:15.430Z,540
2018-03-21T07:04:15.489Z,680
2018-03-21T07:05:15.432Z,866
2018-03-21T07:06:15.494Z,978
2018-03-21T07:07:15.434Z,1147
2018-03-21T07:08:15.440Z,1186
2018-03-21T07:09:15.548Z,1198
2018-03-21T07:10:15.461Z,1215
2018-03-21T07:11:15.552Z,1237
2018-03-21T07:12:15.441Z,1248
2018-03-21T07:13:15.444Z,1192
2018-03-21T07:14:15.437Z,1260
2018-03-21T07:15:15.566Z,1305
2018-03-21T07:16:15.463Z,1316
2018-03-21T07:17:15.553Z,1327
2018-03-21T07:18:15.573Z,1355
2018-03-21T07:19:15.443Z,1406
2018-03-21T07:20:15.502Z,1417
2018-03-21T07:21:15.432Z,1440
2018-03-21T07:22:15.451Z,1468
2018-03-21T07:23:15.538Z,1445
2018-03-21T07:24:15.532Z,1400
2018-03-21T07:25:15.502Z,1440
2018-03-21T07:26:15.573Z,1513
2018-03-21T07:27:15.538Z,1541
2018-03-21T07:28:15.562Z,1586
2018-03-21T07:29:15.471Z,1603
2018-03-21T07:30:15.564Z,1586
2018-03-21T07:31:15.559Z,1417
2018-03-21T07:32:15.457Z,1580
2018-03-21T07:33:15.479Z,1333
2018-03-21T07:34:15.517Z,1147
2018-03-21T07:35:15.569Z,1231
2018-03-21T07:36:15.454Z,1203
2018-03-21T07:37:15.576Z,1248
2018-03-21T07:38:15.455Z,1310
2018-03-21T07:39:15.460Z,1254
2018-03-21T07:40:15.576Z,1288
2018-03-21T07:41:15.530Z,1361
2018-03-21T07:42:15.563Z,1580
2018-03-21T07:43:15.489Z,1681
2018-03-21T07:44:15.568Z,1693
2018-03-21T07:45:15.572Z,1721
2018-03-21T07:46:15.520Z,1794
2018-03-21T07:47:15.580Z,1923
2018-03-21T07:48:15.462Z,2075
2018-03-21T07:49:15.469Z,1659
2018-03-21T07:50:15.520Z,1558
2018-03-21T07:51:15.462Z,1423
2018-03-21T07:52:15.465Z,1389
2018-03-21T07:53:15.557Z,1468
2018-03-21T07:54:15.583Z,1479
2018-03-21T07:55:15.559Z,1479
2018-03-21T07:56:15.495Z,1541
2018-03-21T07:57:15.489Z,1507
2018-03-21T07:58:15.489Z,1462
2018-03-21T07:59:15.467Z,1383
2018-03-21T08:00:15.579Z,1417
2018-03-21T08:01:15.537Z,1378
2018-03-21T08:02:15.557Z,1366
2018-03-21T08:03:15.588Z,1378
2018-03-21T08:04:15.495Z,1383
2018-03-21T08:05:15.470Z,1440
2018-03-21T08:06:15.556Z,1558
2018-03-21T08:07:15.563Z,1614
2018-03-21T08:08:15.589Z,1788
2018-03-21T08:09:15.464Z,1985
2018-03-21T08:10:15.471Z,2750
2018-03-21T08:11:15.478Z,4893
2018-03-21T08:12:15.489Z,6086
2018-03-21T08:13:15.562Z,6181
2018-03-21T08:14:15.510Z,4539
2018-03-21T08:15:15.482Z,4179
2018-03-21T08:16:15.566Z,3870
2018-03-21T08:17:15.543Z,3504
2018-03-21T08:18:15.474Z,3375
2018-03-21T08:19:15.510Z,3200
2018-03-21T08:20:15.590Z,2857
2018-03-21T08:21:15.550Z,2677
2018-03-21T08:22:15.548Z,2497
2018-03-21T08:23:15.485Z,2446
2018-03-21T08:24:15.552Z,2570
2018-03-21T08:25:15.594Z,2469
2018-03-21T08:26:15.592Z,2497
2018-03-21T08:27:15.488Z,2520
2018-03-21T08:28:15.541Z,2531
2018-03-21T08:29:15.594Z,2728
2018-03-21T08:30:15.513Z,2711
2018-03-21T08:31:15.542Z,2806
2018-03-21T08:32:15.601Z,2868
2018-03-21T08:33:15.545Z,2874
2018-03-21T08:34:15.606Z,2936
2018-03-21T08:35:15.482Z,2970
2018-03-21T08:36:15.521Z,2829
2018-03-21T08:37:15.582Z,2857
2018-03-21T08:38:15.573Z,2823
2018-03-21T08:39:15.608Z,2885
2018-03-21T08:40:15.576Z,2851
2018-03-21T08:41:15.589Z,2874
2018-03-21T08:42:15.557Z,2981
2018-03-21T08:43:15.517Z,2998
2018-03-21T08:44:15.604Z,2998
2018-03-21T08:45:15.495Z,3020
2018-03-21T08:46:15.525Z,3031
2018-03-21T08:47:15.582Z,3037
2018-03-21T08:48:15.556Z,3065
2018-03-21T08:49:15.615Z,3093
2018-03-21T08:50:15.563Z,3031
2018-03-21T08:51:15.506Z,2913
2018-03-21T08:52:15.609Z,3105
2018-03-21T08:53:15.620Z,3127
2018-03-21T08:54:15.525Z,3200
2018-03-21T08:55:15.496Z,3206
2018-03-21T08:56:15.621Z,3245
2018-03-21T08:57:15.499Z,3211
2018-03-21T08:58:15.592Z,3245
2018-03-21T08:59:15.533Z,3251
2018-03-21T09:00:15.615Z,3279
2018-03-21T09:01:15.503Z,3290
2018-03-21T09:02:15.615Z,3273
2018-03-21T09:03:15.571Z,3121
2018-03-21T09:04:15.513Z,3138
2018-03-21T09:05:15.506Z,2975
2018-03-21T09:06:15.530Z,3200
2018-03-21T09:07:15.568Z,3020
2018-03-21T09:08:15.620Z,3161
2018-03-21T09:09:15.624Z,3296
2018-03-21T09:10:15.507Z,3358
2018-03-21T09:11:15.541Z,3346
2018-03-21T09:12:15.628Z,3493
2018-03-21T09:13:15.574Z,3459
2018-03-21T09:14:15.554Z,3330
2018-03-21T09:15:15.549Z,3217
2018-03-21T09:16:15.576Z,3093
2018-03-21T09:17:15.567Z,3048
2018-03-21T09:18:15.655Z,3324
2018-03-21T09:19:15.539Z,3386
2018-03-21T09:20:15.573Z,3436
2018-03-21T09:21:15.635Z,3532
2018-03-21T09:22:15.512Z,3487
2018-03-21T09:23:15.600Z,3510
2018-03-21T09:24:15.547Z,3436
2018-03-21T09:25:15.544Z,3346
2018-03-21T09:26:15.636Z,3279
2018-03-21T09:27:15.603Z,3206
2018-03-21T09:28:15.608Z,3251
2018-03-21T09:29:15.529Z,3369
2018-03-21T09:30:15.520Z,3020
2018-03-21T09:31:15.641Z,3217
2018-03-21T09:32:15.614Z,3189
2018-03-21T09:33:15.641Z,3290
2018-03-21T09:34:15.638Z,3144
2018-03-21T09:35:15.613Z,3420
2018-03-21T09:36:15.644Z,3420
2018-03-21T09:37:15.611Z,3318
2018-03-21T09:38:15.641Z,3341
2018-03-21T09:39:15.622Z,3504
2018-03-21T09:40:15.639Z,3155
2018-03-21T09:41:15.524Z,3015
2018-03-21T09:42:15.529Z,2958
2018-03-21T09:43:15.649Z,2745
2018-03-21T09:44:15.594Z,2683
2018-03-21T09:45:15.648Z,2733
2018-03-21T09:46:15.538Z,2835
2018-03-21T09:47:15.602Z,2761
2018-03-21T09:48:15.617Z,2857
2018-03-21T09:49:15.604Z,2981
2018-03-21T09:50:15.589Z,2925
2018-03-21T09:51:15.653Z,3453
2018-03-21T09:52:15.598Z,3577
2018-03-21T09:53:15.654Z,3498
2018-03-21T09:54:15.655Z,3667
2018-03-21T09:55:15.692Z,3706
2018-03-21T09:56:15.650Z,3723
2018-03-21T09:57:15.545Z,3757
2018-03-21T09:58:15.595Z,3678
2018-03-21T09:59:15.527Z,3628
2018-03-21T10:00:15.567Z,3487
2018-03-21T10:01:15.633Z,3335
2018-03-21T10:02:15.603Z,3234
2018-03-21T10:03:15.655Z,3380
2018-03-21T10:04:15.565Z,3240
2018-03-21T10:05:15.661Z,3155
2018-03-21T10:06:15.619Z,3183
2018-03-21T10:07:15.661Z,3183
2018-03-21T10:08:15.654Z,3116
2018-03-21T10:09:15.552Z,3031
2018-03-21T10:10:15.615Z,3065
2018-03-21T10:11:15.660Z,2874
2018-03-21T10:12:15.603Z,2863
2018-03-21T10:13:15.576Z,2851
2018-03-21T10:14:15.557Z,2958
2018-03-21T10:15:15.573Z,3015
2018-03-21T10:16:15.583Z,3015
2018-03-21T10:17:15.547Z,2992
2018-03-21T10:18:15.641Z,3121
2018-03-21T10:19:15.581Z,3262
2018-03-21T10:20:15.609Z,3521
2018-03-21T10:21:15.610Z,3521
2018-03-21T10:22:15.664Z,3588
2018-03-21T10:23:15.581Z,3695
2018-03-21T10:24:15.554Z,3397
2018-03-21T10:25:15.612Z,3341
2018-03-21T10:26:15.563Z,3363
2018-03-21T10:27:15.586Z,3757
2018-03-21T10:28:15.645Z,3706
2018-03-21T10:29:15.668Z,3684
2018-03-21T10:30:15.566Z,3465
2018-03-21T10:31:15.626Z,3403
2018-03-21T10:32:15.670Z,3448
2018-03-21T10:33:15.621Z,3268
2018-03-21T10:34:15.627Z,2975
2018-03-21T10:35:15.679Z,3071
2018-03-21T10:36:15.620Z,3121
2018-03-21T10:37:15.571Z,3099
2018-03-21T10:38:15.629Z,3088
2018-03-21T10:39:15.564Z,3026
2018-03-21T10:40:15.591Z,3217
2018-03-21T10:41:15.561Z,3324
2018-03-21T10:42:15.628Z,3538
2018-03-21T10:43:15.655Z,3661
2018-03-21T10:44:15.572Z,3605
2018-03-21T10:45:15.660Z,3937
2018-03-21T10:46:15.590Z,4010
2018-03-21T10:47:15.599Z,3948
2018-03-21T10:48:15.659Z,3780
2018-03-21T10:49:15.654Z,3403
2018-03-21T10:50:15.665Z,3420
2018-03-21T10:51:15.594Z,3493
2018-03-21T10:52:15.684Z,3476
2018-03-21T10:53:15.570Z,3678
2018-03-21T10:54:15.583Z,3684
2018-03-21T10:55:15.664Z,3645
2018-03-21T10:56:15.572Z,3645
2018-03-21T10:57:15.697Z,3791
2018-03-21T10:58:15.664Z,3931
2018-03-21T10:59:15.574Z,3892
2018-03-21T11:00:15.701Z,3909
2018-03-21T11:01:15.607Z,3954
2018-03-21T11:02:15.689Z,3971
2018-03-21T11:03:15.602Z,3971
2018-03-21T11:04:15.640Z,3881
2018-03-21T11:05:15.600Z,3791
2018-03-21T11:06:15.697Z,3774
2018-03-21T11:07:15.690Z,3943
2018-03-21T11:08:15.641Z,4044
2018-03-21T11:09:15.607Z,4117
2018-03-21T11:10:15.664Z,3931
2018-03-21T11:11:15.589Z,4021
2018-03-21T11:12:15.693Z,4111
2018-03-21T11:13:15.582Z,3583
2018-03-21T11:14:15.648Z,4179
2018-03-21T11:15:15.592Z,4145
2018-03-21T11:16:15.590Z,3808
2018-03-21T11:17:15.582Z,3605
2018-03-21T11:18:15.656Z,3549
2018-03-21T11:19:15.586Z,3493
2018-03-21T11:20:15.733Z,2981
2018-03-21T11:21:15.581Z,2441
2018-03-21T11:22:15.656Z,3245
2018-03-21T11:23:15.633Z,3391
2018-03-21T11:24:15.606Z,3701
2018-03-21T11:25:15.719Z,3870
2018-03-21T11:26:15.620Z,3611
2018-03-21T11:27:15.644Z,3633
2018-03-21T11:28:15.708Z,3481
2018-03-21T11:29:15.708Z,3110
2018-03-21T11:30:15.685Z,2970
2018-03-21T11:31:15.651Z,2975
2018-03-21T11:32:15.714Z,3245
2018-03-21T11:33:15.594Z,3313
2018-03-21T11:34:15.713Z,3453
2018-03-21T11:35:15.651Z,3431
2018-03-21T11:36:15.708Z,3465
2018-03-21T11:37:15.653Z,3448
2018-03-21T11:38:15.711Z,3532
2018-03-21T11:39:15.721Z,3605
2018-03-21T11:40:15.692Z,3656
2018-03-21T11:41:15.672Z,3656
2018-03-21T11:42:15.633Z,3656
2018-03-21T11:43:15.721Z,3813
2018-03-21T11:44:15.718Z,3701
2018-03-21T11:45:15.671Z,3611
2018-03-21T11:46:15.679Z,3678
2018-03-21T11:47:15.635Z,3774
2018-03-21T11:48:15.624Z,3881
2018-03-21T11:49:15.696Z,3909
2018-03-21T11:50:15.630Z,3920
2018-03-21T11:51:15.702Z,3858
2018-03-21T11:52:15.715Z,3937
2018-03-21T11:53:15.677Z,3943
2018-03-21T11:54:15.639Z,3920
2018-03-21T11:55:15.675Z,3920
2018-03-21T11:56:15.728Z,3903
2018-03-21T11:57:15.641Z,3875
2018-03-21T11:58:15.723Z,3825
2018-03-21T11:59:15.694Z,3791
2018-03-21T12:00:15.672Z,3667
2018-03-21T12:01:15.682Z,3774
2018-03-21T12:02:15.620Z,3847
2018-03-21T12:03:15.702Z,3819
2018-03-21T12:04:15.696Z,3785
2018-03-21T12:05:15.613Z,3796
2018-03-21T12:06:15.732Z,3864
2018-03-21T12:07:15.623Z,3858
2018-03-21T12:08:15.616Z,3780
2018-03-21T12:09:15.638Z,3735
2018-03-21T12:10:15.678Z,3712
2018-03-21T12:11:15.650Z,3701
2018-03-21T12:12:15.708Z,3802
2018-03-21T12:13:15.618Z,3858
2018-03-21T12:14:15.736Z,3881
2018-03-21T12:15:15.628Z,3836
2018-03-21T12:16:15.619Z,3802
2018-03-21T12:17:15.741Z,3751
2018-03-21T12:18:15.715Z,3853
2018-03-21T12:19:15.685Z,3690
2018-03-21T12:20:15.667Z,3690
2018-03-21T12:21:15.735Z,3526
2018-03-21T12:22:15.738Z,3386
2018-03-21T12:23:15.649Z,3279
2018-03-21T12:24:15.735Z,3420
2018-03-21T12:25:15.748Z,3268
2018-03-21T12:26:15.662Z,3465
2018-03-21T12:27:15.799Z,3605
2018-03-21T12:28:15.700Z,3583
2018-03-21T12:29:15.746Z,3577
2018-03-21T12:30:15.690Z,3566
2018-03-21T12:31:15.693Z,3571
2018-03-21T12:32:15.742Z,3538
2018-03-21T12:33:15.742Z,3510
2018-03-21T12:34:15.723Z,3470
2018-03-21T12:35:15.753Z,3532
2018-03-21T12:36:15.633Z,3661
2018-03-21T12:37:15.665Z,3701
2018-03-21T12:38:15.670Z,3706
2018-03-21T12:39:15.721Z,3695
2018-03-21T12:40:15.754Z,3566
2018-03-21T12:41:15.754Z,3690
2018-03-21T12:42:15.749Z,3622
2018-03-21T12:43:15.759Z,3633
2018-03-21T12:44:15.749Z,3605
2018-03-21T12:45:15.702Z,3510
2018-03-21T12:46:15.705Z,3453
2018-03-21T12:47:15.647Z,3431
2018-03-21T12:48:15.731Z,3403
2018-03-21T12:49:15.753Z,3318
2018-03-21T12:50:15.713Z,3358
2018-03-21T12:51:15.639Z,3386
2018-03-21T12:52:15.738Z,3487
2018-03-21T12:53:15.642Z,3504
2018-03-21T12:54:15.645Z,3493
2018-03-21T12:55:15.640Z,3476
2018-03-21T12:56:15.885Z,3498
2018-03-21T12:57:15.679Z,3268
2018-03-21T12:58:15.759Z,3178
2018-03-21T12:59:15.681Z,3200
2018-03-21T13:00:15.735Z,3200
2018-03-21T13:01:15.759Z,3313
2018-03-21T13:02:15.740Z,3408
2018-03-21T13:03:15.758Z,3448
2018-03-21T13:04:15.657Z,3453
2018-03-21T13:05:15.760Z,3459
2018-03-21T13:06:15.679Z,3375
2018-03-21T13:07:15.742Z,3465
2018-03-21T13:08:15.698Z,3583
2018-03-21T13:09:15.649Z,3678
2018-03-21T13:10:15.662Z,3701
2018-03-21T13:11:15.765Z,3701
2018-03-21T13:12:15.745Z,3712
2018-03-21T13:13:15.747Z,3549
2018-03-21T13:14:15.716Z,3453
2018-03-21T13:15:15.726Z,3408
2018-03-21T13:16:15.784Z,3397
2018-03-21T13:17:15.688Z,3391
2018-03-21T13:18:15.751Z,3363
2018-03-21T13:19:15.667Z,3245
2018-03-21T13:20:15.726Z,3071
2018-03-21T13:21:15.780Z,3105
2018-03-21T13:22:15.662Z,3071
2018-03-21T13:23:15.773Z,3088
2018-03-21T13:24:15.721Z,3071
2018-03-21T13:25:15.782Z,3088
2018-03-21T13:26:15.722Z,3093
2018-03-21T13:27:15.733Z,3144
2018-03-21T13:28:15.776Z,3099
2018-03-21T13:29:15.674Z,3088
2018-03-21T13:30:15.783Z,2851
2018-03-21T13:31:15.710Z,2823
2018-03-21T13:32:15.789Z,2902
2018-03-21T13:33:15.688Z,2964
2018-03-21T13:34:15.665Z,3060
2018-03-21T13:35:15.700Z,3054
2018-03-21T13:36:15.779Z,3060
2018-03-21T13:37:15.677Z,3054
2018-03-21T13:38:15.780Z,3048
2018-03-21T13:39:15.677Z,2902
2018-03-21T13:40:15.702Z,2536
2018-03-21T13:41:15.790Z,1833
2018-03-21T13:42:15.681Z,2818
2018-03-21T13:43:15.745Z,2790
2018-03-21T13:44:15.741Z,2880
2018-03-21T13:45:15.803Z,2981
2018-03-21T13:46:15.740Z,2835
2018-03-21T13:47:15.697Z,2621
2018-03-21T13:48:15.770Z,2700
2018-03-21T13:49:15.787Z,2660
2018-03-21T13:50:15.852Z,2722
2018-03-21T13:51:15.768Z,2593
2018-03-21T13:52:15.798Z,2610
2018-03-21T13:53:15.794Z,2598
2018-03-21T13:54:15.769Z,2615